sensor_id;sensor_type;location;lat;lon;timestamp;P1;durP1;ratioP1;P2;durP2;ratioP2
64361;SDS011;50685;53.346;-6.296;2023-05-15T00:00:48;9.88;;;1.63;;
64361;SDS011;50685;53.346;-6.296;2023-05-15T00:08:51;3.00;;;1.10;;
64361;SDS011;50685;53.346;-6.296;2023-05-15T00:14:17;5.63;;;1.27;;
64361;SDS011;50685;53.346;-6.296;2023-05-15T00:16:45;8.35;;;1.45;;
64361;SDS011;50685;53.346;-6.296;2023-05-15T00:19:16;8.00;;;1.38;;
64361;SDS011;50685;53.346;-6.296;2023-05-15T00:21:45;6.18;;;1.10;;
64361;SDS011;50685;53.346;-6.296;2023-05-15T00:24:11;6.57;;;1.83;;
64361;SDS011;50685;53.346;-6.296;2023-05-15T00:26:42;8.30;;;1.35;;
64361;SDS011;50685;53.346;-6.296;2023-05-15T00:29:12;6.97;;;1.67;;
64361;SDS011;50685;53.346;-6.296;2023-05-15T00:32:18;13.02;;;1.40;;
64361;SDS011;50685;53.346;-6.296;2023-05-15T00:34:43;7.97;;;1.80;;
64361;SDS011;50685;53.346;-6.296;2023-05-15T00:37:12;7.57;;;1.15;;
64361;SDS011;50685;53.346;-6.296;2023-05-15T00:39:49;9.95;;;1.70;;
64361;SDS011;50685;53.346;-6.296;2023-05-15T00:42:21;6.90;;;1.35;;
64361;SDS011;50685;53.346;-6.296;2023-05-15T00:44:50;14.43;;;1.52;;
64361;SDS011;50685;53.346;-6.296;2023-05-15T00:47:16;7.32;;;1.23;;
64361;SDS011;50685;53.346;-6.296;2023-05-15T00:49:53;8.88;;;1.25;;
64361;SDS011;50685;53.346;-6.296;2023-05-15T00:52:24;8.00;;;1.85;;
64361;SDS011;50685;53.346;-6.296;2023-05-15T00:55:04;5.43;;;1.50;;
64361;SDS011;50685;53.346;-6.296;2023-05-15T00:57:30;7.38;;;1.40;;
64361;SDS011;50685;53.346;-6.296;2023-05-15T00:59:59;5.38;;;1.50;;
64361;SDS011;50685;53.346;-6.296;2023-05-15T01:11:07;6.32;;;2.03;;
64361;SDS011;50685;53.346;-6.296;2023-05-15T01:13:37;6.20;;;1.40;;
64361;SDS011;50685;53.346;-6.296;2023-05-15T01:18:42;5.45;;;1.58;;
64361;SDS011;50685;53.346;-6.296;2023-05-15T01:29:40;11.05;;;2.10;;
64361;SDS011;50685;53.346;-6.296;2023-05-15T01:38:00;8.30;;;1.50;;
64361;SDS011;50685;53.346;-6.296;2023-05-15T01:40:49;5.80;;;1.55;;
64361;SDS011;50685;53.346;-6.296;2023-05-15T01:49:22;10.73;;;1.67;;
64361;SDS011;50685;53.346;-6.296;2023-05-15T01:51:53;10.07;;;1.55;;
64361;SDS011;50685;53.346;-6.296;2023-05-15T01:54:35;10.40;;;1.50;;
64361;SDS011;50685;53.346;-6.296;2023-05-15T01:57:16;7.57;;;1.50;;
64361;SDS011;50685;53.346;-6.296;2023-05-15T01:59:44;4.95;;;1.45;;
64361;SDS011;50685;53.346;-6.296;2023-05-15T02:02:22;11.85;;;1.60;;
64361;SDS011;50685;53.346;-6.296;2023-05-15T02:04:51;5.60;;;2.85;;
64361;SDS011;50685;53.346;-6.296;2023-05-15T02:07:18;7.90;;;1.15;;
64361;SDS011;50685;53.346;-6.296;2023-05-15T02:10:05;10.88;;;1.80;;
64361;SDS011;50685;53.346;-6.296;2023-05-15T02:12:32;2.92;;;1.20;;
64361;SDS011;50685;53.346;-6.296;2023-05-15T02:15:02;9.43;;;1.05;;
64361;SDS011;50685;53.346;-6.296;2023-05-15T02:17:33;7.05;;;1.50;;
64361;SDS011;50685;53.346;-6.296;2023-05-15T02:22:39;8.57;;;1.85;;
64361;SDS011;50685;53.346;-6.296;2023-05-15T02:25:10;9.23;;;1.30;;
64361;SDS011;50685;53.346;-6.296;2023-05-15T02:27:42;6.57;;;2.53;;
64361;SDS011;50685;53.346;-6.296;2023-05-15T02:33:22;9.80;;;2.50;;
64361;SDS011;50685;53.346;-6.296;2023-05-15T02:38:47;7.38;;;1.58;;
64361;SDS011;50685;53.346;-6.296;2023-05-15T02:41:19;7.68;;;1.83;;
64361;SDS011;50685;53.346;-6.296;2023-05-15T02:43:57;4.93;;;1.63;;
64361;SDS011;50685;53.346;-6.296;2023-05-15T02:49:06;10.27;;;2.00;;
64361;SDS011;50685;53.346;-6.296;2023-05-15T02:51:37;9.45;;;1.85;;
64361;SDS011;50685;53.346;-6.296;2023-05-15T02:54:08;6.90;;;1.38;;
64361;SDS011;50685;53.346;-6.296;2023-05-15T02:59:23;7.78;;;2.30;;
64361;SDS011;50685;53.346;-6.296;2023-05-15T03:01:57;5.70;;;2.22;;
64361;SDS011;50685;53.346;-6.296;2023-05-15T03:04:27;3.65;;;1.30;;
64361;SDS011;50685;53.346;-6.296;2023-05-15T03:06:59;6.03;;;1.90;;
64361;SDS011;50685;53.346;-6.296;2023-05-15T03:09:37;6.15;;;1.50;;
64361;SDS011;50685;53.346;-6.296;2023-05-15T03:12:18;6.85;;;1.70;;
64361;SDS011;50685;53.346;-6.296;2023-05-15T03:14:47;11.90;;;1.20;;
64361;SDS011;50685;53.346;-6.296;2023-05-15T03:17:19;10.20;;;3.45;;
64361;SDS011;50685;53.346;-6.296;2023-05-15T03:19:57;5.72;;;1.42;;
64361;SDS011;50685;53.346;-6.296;2023-05-15T03:22:30;6.38;;;1.50;;
64361;SDS011;50685;53.346;-6.296;2023-05-15T03:24:59;5.38;;;1.83;;
64361;SDS011;50685;53.346;-6.296;2023-05-15T03:27:26;2.70;;;1.45;;
64361;SDS011;50685;53.346;-6.296;2023-05-15T03:29:58;5.28;;;1.30;;
64361;SDS011;50685;53.346;-6.296;2023-05-15T03:32:30;5.82;;;1.42;;
64361;SDS011;50685;53.346;-6.296;2023-05-15T03:34:57;3.42;;;1.30;;
64361;SDS011;50685;53.346;-6.296;2023-05-15T03:37:27;7.03;;;1.40;;
64361;SDS011;50685;53.346;-6.296;2023-05-15T03:39:56;8.65;;;1.73;;
64361;SDS011;50685;53.346;-6.296;2023-05-15T03:42:25;4.78;;;1.10;;
64361;SDS011;50685;53.346;-6.296;2023-05-15T03:44:55;5.97;;;1.90;;
64361;SDS011;50685;53.346;-6.296;2023-05-15T03:52:34;6.25;;;1.73;;
64361;SDS011;50685;53.346;-6.296;2023-05-15T03:55:03;10.07;;;1.30;;
64361;SDS011;50685;53.346;-6.296;2023-05-15T03:57:30;9.65;;;1.48;;
64361;SDS011;50685;53.346;-6.296;2023-05-15T04:00:00;4.50;;;1.30;;
64361;SDS011;50685;53.346;-6.296;2023-05-15T04:02:39;10.02;;;1.58;;
64361;SDS011;50685;53.346;-6.296;2023-05-15T04:05:13;8.27;;;1.20;;
64361;SDS011;50685;53.346;-6.296;2023-05-15T04:07:45;8.45;;;1.13;;
64361;SDS011;50685;53.346;-6.296;2023-05-15T04:12:52;10.48;;;1.65;;
64361;SDS011;50685;53.346;-6.296;2023-05-15T04:15:26;7.07;;;1.17;;
64361;SDS011;50685;53.346;-6.296;2023-05-15T04:18:17;2.50;;;1.00;;
64361;SDS011;50685;53.346;-6.296;2023-05-15T04:20:48;12.13;;;1.50;;
64361;SDS011;50685;53.346;-6.296;2023-05-15T04:23:16;7.15;;;1.17;;
64361;SDS011;50685;53.346;-6.296;2023-05-15T04:25:47;1.73;;;0.90;;
64361;SDS011;50685;53.346;-6.296;2023-05-15T04:28:13;9.23;;;1.30;;
64361;SDS011;50685;53.346;-6.296;2023-05-15T04:30:39;13.65;;;1.10;;
64361;SDS011;50685;53.346;-6.296;2023-05-15T04:33:10;3.97;;;1.10;;
64361;SDS011;50685;53.346;-6.296;2023-05-15T04:35:49;5.45;;;1.15;;
64361;SDS011;50685;53.346;-6.296;2023-05-15T04:38:19;6.78;;;1.23;;
64361;SDS011;50685;53.346;-6.296;2023-05-15T04:40:45;7.10;;;1.50;;
64361;SDS011;50685;53.346;-6.296;2023-05-15T04:43:11;12.07;;;1.65;;
64361;SDS011;50685;53.346;-6.296;2023-05-15T04:45:42;9.20;;;1.42;;
64361;SDS011;50685;53.346;-6.296;2023-05-15T04:48:14;7.57;;;1.77;;
64361;SDS011;50685;53.346;-6.296;2023-05-15T04:50:44;6.18;;;1.17;;
64361;SDS011;50685;53.346;-6.296;2023-05-15T04:55:49;11.63;;;2.45;;
64361;SDS011;50685;53.346;-6.296;2023-05-15T04:58:16;6.45;;;1.15;;
64361;SDS011;50685;53.346;-6.296;2023-05-15T05:00:43;10.45;;;1.38;;
64361;SDS011;50685;53.346;-6.296;2023-05-15T05:03:12;12.55;;;2.53;;
64361;SDS011;50685;53.346;-6.296;2023-05-15T05:05:38;11.48;;;1.33;;
64361;SDS011;50685;53.346;-6.296;2023-05-15T05:08:07;6.30;;;1.60;;
64361;SDS011;50685;53.346;-6.296;2023-05-15T05:10:45;11.63;;;1.40;;
64361;SDS011;50685;53.346;-6.296;2023-05-15T05:13:16;4.85;;;1.45;;
64361;SDS011;50685;53.346;-6.296;2023-05-15T05:15:44;10.55;;;1.38;;
64361;SDS011;50685;53.346;-6.296;2023-05-15T05:18:21;8.43;;;1.58;;
64361;SDS011;50685;53.346;-6.296;2023-05-15T05:21:02;8.75;;;1.50;;
64361;SDS011;50685;53.346;-6.296;2023-05-15T05:23:31;7.00;;;1.75;;
64361;SDS011;50685;53.346;-6.296;2023-05-15T05:26:00;5.88;;;1.20;;
64361;SDS011;50685;53.346;-6.296;2023-05-15T05:28:26;8.05;;;1.33;;
64361;SDS011;50685;53.346;-6.296;2023-05-15T05:30:55;8.52;;;1.60;;
64361;SDS011;50685;53.346;-6.296;2023-05-15T05:33:32;9.23;;;1.40;;
64361;SDS011;50685;53.346;-6.296;2023-05-15T05:36:15;4.53;;;2.75;;
64361;SDS011;50685;53.346;-6.296;2023-05-15T05:38:49;9.05;;;1.63;;
64361;SDS011;50685;53.346;-6.296;2023-05-15T05:41:19;9.85;;;1.33;;
64361;SDS011;50685;53.346;-6.296;2023-05-15T05:43:48;6.93;;;1.20;;
64361;SDS011;50685;53.346;-6.296;2023-05-15T05:46:17;5.47;;;1.40;;
64361;SDS011;50685;53.346;-6.296;2023-05-15T05:48:43;9.32;;;1.63;;
64361;SDS011;50685;53.346;-6.296;2023-05-15T05:51:09;6.85;;;1.50;;
64361;SDS011;50685;53.346;-6.296;2023-05-15T05:53:42;7.07;;;0.90;;
64361;SDS011;50685;53.346;-6.296;2023-05-15T05:56:07;9.77;;;1.52;;
64361;SDS011;50685;53.346;-6.296;2023-05-15T05:58:33;11.88;;;3.30;;
64361;SDS011;50685;53.346;-6.296;2023-05-15T06:01:03;11.13;;;1.38;;
64361;SDS011;50685;53.346;-6.296;2023-05-15T06:03:29;9.23;;;1.63;;
64361;SDS011;50685;53.346;-6.296;2023-05-15T06:05:58;6.60;;;1.83;;
64361;SDS011;50685;53.346;-6.296;2023-05-15T06:08:27;3.55;;;1.05;;
64361;SDS011;50685;53.346;-6.296;2023-05-15T06:10:53;7.03;;;1.40;;
64361;SDS011;50685;53.346;-6.296;2023-05-15T06:13:23;10.88;;;1.42;;
64361;SDS011;50685;53.346;-6.296;2023-05-15T06:15:58;5.60;;;1.33;;
64361;SDS011;50685;53.346;-6.296;2023-05-15T06:18:26;4.38;;;1.42;;
64361;SDS011;50685;53.346;-6.296;2023-05-15T06:20:58;7.82;;;1.48;;
64361;SDS011;50685;53.346;-6.296;2023-05-15T06:23:26;13.27;;;1.85;;
64361;SDS011;50685;53.346;-6.296;2023-05-15T06:25:52;6.85;;;1.23;;
64361;SDS011;50685;53.346;-6.296;2023-05-15T06:28:18;7.95;;;1.33;;
64361;SDS011;50685;53.346;-6.296;2023-05-15T06:30:43;12.13;;;1.80;;
64361;SDS011;50685;53.346;-6.296;2023-05-15T06:36:03;6.40;;;1.58;;
64361;SDS011;50685;53.346;-6.296;2023-05-15T06:39:21;8.60;;;1.67;;
64361;SDS011;50685;53.346;-6.296;2023-05-15T06:41:56;7.18;;;1.92;;
64361;SDS011;50685;53.346;-6.296;2023-05-15T06:55:21;4.32;;;1.55;;
64361;SDS011;50685;53.346;-6.296;2023-05-15T07:01:45;7.38;;;1.15;;
64361;SDS011;50685;53.346;-6.296;2023-05-15T07:10:11;4.82;;;1.25;;
64361;SDS011;50685;53.346;-6.296;2023-05-15T07:12:38;4.10;;;1.10;;
64361;SDS011;50685;53.346;-6.296;2023-05-15T07:15:04;10.02;;;1.95;;
64361;SDS011;50685;53.346;-6.296;2023-05-15T07:17:30;9.50;;;1.27;;
64361;SDS011;50685;53.346;-6.296;2023-05-15T07:19:57;2.42;;;1.30;;
64361;SDS011;50685;53.346;-6.296;2023-05-15T07:22:25;10.60;;;1.35;;
64361;SDS011;50685;53.346;-6.296;2023-05-15T07:24:55;6.45;;;1.50;;
64361;SDS011;50685;53.346;-6.296;2023-05-15T07:27:32;6.22;;;1.63;;
64361;SDS011;50685;53.346;-6.296;2023-05-15T07:29:57;5.63;;;1.23;;
64361;SDS011;50685;53.346;-6.296;2023-05-15T07:32:23;4.35;;;1.25;;
64361;SDS011;50685;53.346;-6.296;2023-05-15T07:34:48;10.23;;;1.40;;
64361;SDS011;50685;53.346;-6.296;2023-05-15T07:37:15;7.88;;;1.50;;
64361;SDS011;50685;53.346;-6.296;2023-05-15T07:49:59;7.80;;;1.10;;
64361;SDS011;50685;53.346;-6.296;2023-05-15T07:52:28;8.00;;;1.20;;
64361;SDS011;50685;53.346;-6.296;2023-05-15T07:54:55;7.15;;;1.27;;
64361;SDS011;50685;53.346;-6.296;2023-05-15T07:57:30;8.85;;;1.08;;
64361;SDS011;50685;53.346;-6.296;2023-05-15T07:59:56;6.93;;;1.63;;
64361;SDS011;50685;53.346;-6.296;2023-05-15T08:02:26;4.57;;;0.82;;
64361;SDS011;50685;53.346;-6.296;2023-05-15T08:04:51;5.60;;;1.45;;
64361;SDS011;50685;53.346;-6.296;2023-05-15T08:07:17;7.32;;;0.95;;
64361;SDS011;50685;53.346;-6.296;2023-05-15T08:09:45;6.18;;;1.00;;
64361;SDS011;50685;53.346;-6.296;2023-05-15T08:12:14;8.95;;;0.80;;
64361;SDS011;50685;53.346;-6.296;2023-05-15T08:14:44;7.78;;;0.70;;
64361;SDS011;50685;53.346;-6.296;2023-05-15T08:17:11;4.70;;;1.20;;
64361;SDS011;50685;53.346;-6.296;2023-05-15T08:19:38;6.90;;;1.17;;
64361;SDS011;50685;53.346;-6.296;2023-05-15T08:22:06;8.25;;;1.00;;
64361;SDS011;50685;53.346;-6.296;2023-05-15T08:24:37;6.43;;;0.82;;
64361;SDS011;50685;53.346;-6.296;2023-05-15T08:27:06;5.97;;;0.88;;
64361;SDS011;50685;53.346;-6.296;2023-05-15T08:29:42;7.45;;;1.15;;
64361;SDS011;50685;53.346;-6.296;2023-05-15T08:32:13;3.80;;;1.20;;
64361;SDS011;50685;53.346;-6.296;2023-05-15T08:35:18;5.57;;;0.80;;
64361;SDS011;50685;53.346;-6.296;2023-05-15T08:37:56;5.60;;;0.80;;
64361;SDS011;50685;53.346;-6.296;2023-05-15T08:40:22;1.75;;;0.80;;
64361;SDS011;50685;53.346;-6.296;2023-05-15T08:42:48;4.45;;;0.77;;
64361;SDS011;50685;53.346;-6.296;2023-05-15T08:45:19;2.88;;;0.90;;
64361;SDS011;50685;53.346;-6.296;2023-05-15T08:47:47;10.57;;;1.20;;
64361;SDS011;50685;53.346;-6.296;2023-05-15T08:50:14;6.88;;;1.20;;
64361;SDS011;50685;53.346;-6.296;2023-05-15T08:52:41;7.93;;;1.00;;
64361;SDS011;50685;53.346;-6.296;2023-05-15T08:55:08;5.18;;;1.10;;
64361;SDS011;50685;53.346;-6.296;2023-05-15T08:57:39;7.07;;;1.27;;
64361;SDS011;50685;53.346;-6.296;2023-05-15T09:00:15;7.60;;;1.35;;
64361;SDS011;50685;53.346;-6.296;2023-05-15T09:02:54;2.60;;;0.88;;
64361;SDS011;50685;53.346;-6.296;2023-05-15T09:05:24;10.55;;;2.13;;
64361;SDS011;50685;53.346;-6.296;2023-05-15T09:07:59;3.17;;;0.90;;
64361;SDS011;50685;53.346;-6.296;2023-05-15T09:10:39;4.75;;;1.25;;
64361;SDS011;50685;53.346;-6.296;2023-05-15T09:13:11;10.10;;;1.52;;
64361;SDS011;50685;53.346;-6.296;2023-05-15T09:32:27;2.65;;;0.90;;
64361;SDS011;50685;53.346;-6.296;2023-05-15T09:34:53;3.97;;;0.80;;
64361;SDS011;50685;53.346;-6.296;2023-05-15T09:37:28;2.35;;;0.65;;
64361;SDS011;50685;53.346;-6.296;2023-05-15T09:46:41;5.00;;;0.80;;
64361;SDS011;50685;53.346;-6.296;2023-05-15T09:49:08;1.92;;;0.52;;
64361;SDS011;50685;53.346;-6.296;2023-05-15T09:51:34;3.60;;;0.95;;
64361;SDS011;50685;53.346;-6.296;2023-05-15T09:54:02;1.58;;;0.60;;
64361;SDS011;50685;53.346;-6.296;2023-05-15T09:56:28;1.40;;;0.68;;
64361;SDS011;50685;53.346;-6.296;2023-05-15T09:58:57;2.63;;;0.68;;
64361;SDS011;50685;53.346;-6.296;2023-05-15T10:01:23;3.60;;;0.60;;
64361;SDS011;50685;53.346;-6.296;2023-05-15T10:03:55;3.67;;;0.80;;
64361;SDS011;50685;53.346;-6.296;2023-05-15T10:06:22;2.75;;;0.57;;
64361;SDS011;50685;53.346;-6.296;2023-05-15T10:08:53;3.22;;;0.70;;
64361;SDS011;50685;53.346;-6.296;2023-05-15T10:11:19;5.20;;;1.05;;
64361;SDS011;50685;53.346;-6.296;2023-05-15T10:13:46;5.45;;;0.70;;
64361;SDS011;50685;53.346;-6.296;2023-05-15T10:16:17;3.15;;;0.80;;
64361;SDS011;50685;53.346;-6.296;2023-05-15T10:18:53;2.25;;;0.60;;
64361;SDS011;50685;53.346;-6.296;2023-05-15T10:21:21;7.03;;;0.73;;
64361;SDS011;50685;53.346;-6.296;2023-05-15T10:23:49;2.90;;;0.80;;
64361;SDS011;50685;53.346;-6.296;2023-05-15T10:28:52;2.80;;;0.60;;
64361;SDS011;50685;53.346;-6.296;2023-05-15T10:31:20;1.10;;;0.45;;
64361;SDS011;50685;53.346;-6.296;2023-05-15T10:33:47;3.22;;;0.47;;
64361;SDS011;50685;53.346;-6.296;2023-05-15T10:36:17;1.40;;;0.80;;
64361;SDS011;50685;53.346;-6.296;2023-05-15T10:38:43;1.05;;;0.50;;
64361;SDS011;50685;53.346;-6.296;2023-05-15T10:41:15;1.85;;;0.50;;
64361;SDS011;50685;53.346;-6.296;2023-05-15T10:43:42;0.80;;;0.50;;
64361;SDS011;50685;53.346;-6.296;2023-05-15T10:46:08;2.58;;;0.60;;
64361;SDS011;50685;53.346;-6.296;2023-05-15T10:48:35;6.25;;;0.70;;
64361;SDS011;50685;53.346;-6.296;2023-05-15T10:51:01;5.05;;;0.73;;
64361;SDS011;50685;53.346;-6.296;2023-05-15T10:53:26;4.25;;;0.60;;
64361;SDS011;50685;53.346;-6.296;2023-05-15T10:56:01;2.13;;;0.60;;
64361;SDS011;50685;53.346;-6.296;2023-05-15T10:58:27;2.40;;;0.70;;
64361;SDS011;50685;53.346;-6.296;2023-05-15T11:00:56;2.03;;;0.43;;
64361;SDS011;50685;53.346;-6.296;2023-05-15T11:03:36;4.75;;;0.55;;
64361;SDS011;50685;53.346;-6.296;2023-05-15T11:06:11;2.50;;;0.50;;
64361;SDS011;50685;53.346;-6.296;2023-05-15T11:08:40;1.52;;;0.80;;
64361;SDS011;50685;53.346;-6.296;2023-05-15T11:11:07;1.15;;;0.52;;
64361;SDS011;50685;53.346;-6.296;2023-05-15T11:14:33;1.98;;;0.50;;
64361;SDS011;50685;53.346;-6.296;2023-05-15T11:21:57;2.92;;;0.60;;
64361;SDS011;50685;53.346;-6.296;2023-05-15T11:27:02;0.70;;;0.50;;
64361;SDS011;50685;53.346;-6.296;2023-05-15T11:32:02;4.07;;;0.65;;
64361;SDS011;50685;53.346;-6.296;2023-05-15T11:34:34;3.88;;;0.40;;
64361;SDS011;50685;53.346;-6.296;2023-05-15T11:37:07;1.27;;;0.60;;
64361;SDS011;50685;53.346;-6.296;2023-05-15T11:39:41;3.03;;;0.60;;
64361;SDS011;50685;53.346;-6.296;2023-05-15T11:42:11;1.80;;;0.65;;
64361;SDS011;50685;53.346;-6.296;2023-05-15T11:44:37;5.35;;;1.08;;
64361;SDS011;50685;53.346;-6.296;2023-05-15T11:47:08;12.55;;;1.13;;
64361;SDS011;50685;53.346;-6.296;2023-05-15T11:49:35;2.10;;;0.40;;
64361;SDS011;50685;53.346;-6.296;2023-05-15T11:52:02;4.55;;;0.70;;
64361;SDS011;50685;53.346;-6.296;2023-05-15T11:54:30;2.50;;;0.80;;
64361;SDS011;50685;53.346;-6.296;2023-05-15T11:56:56;7.80;;;0.68;;
64361;SDS011;50685;53.346;-6.296;2023-05-15T11:59:25;0.90;;;0.70;;
64361;SDS011;50685;53.346;-6.296;2023-05-15T12:01:51;3.10;;;0.80;;
64361;SDS011;50685;53.346;-6.296;2023-05-15T12:04:17;5.50;;;0.80;;
64361;SDS011;50685;53.346;-6.296;2023-05-15T12:06:46;2.65;;;0.50;;
64361;SDS011;50685;53.346;-6.296;2023-05-15T12:09:13;1.75;;;0.95;;
64361;SDS011;50685;53.346;-6.296;2023-05-15T12:12:01;3.15;;;0.45;;
64361;SDS011;50685;53.346;-6.296;2023-05-15T12:14:29;1.83;;;0.50;;
64361;SDS011;50685;53.346;-6.296;2023-05-15T12:16:59;0.95;;;0.60;;
64361;SDS011;50685;53.346;-6.296;2023-05-15T12:19:34;2.28;;;0.57;;
64361;SDS011;50685;53.346;-6.296;2023-05-15T12:22:03;4.80;;;0.60;;
64361;SDS011;50685;53.346;-6.296;2023-05-15T12:24:32;0.60;;;0.40;;
64361;SDS011;50685;53.346;-6.296;2023-05-15T12:27:06;1.30;;;0.47;;
64361;SDS011;50685;53.346;-6.296;2023-05-15T12:29:33;5.35;;;0.57;;
64361;SDS011;50685;53.346;-6.296;2023-05-15T12:32:01;2.10;;;0.50;;
64361;SDS011;50685;53.346;-6.296;2023-05-15T12:34:27;0.73;;;0.40;;
64361;SDS011;50685;53.346;-6.296;2023-05-15T12:37:01;1.63;;;0.40;;
64361;SDS011;50685;53.346;-6.296;2023-05-15T12:39:27;0.73;;;0.38;;
64361;SDS011;50685;53.346;-6.296;2023-05-15T12:41:59;0.50;;;0.50;;
64361;SDS011;50685;53.346;-6.296;2023-05-15T12:44:27;2.20;;;0.50;;
64361;SDS011;50685;53.346;-6.296;2023-05-15T12:46:55;2.08;;;0.60;;
64361;SDS011;50685;53.346;-6.296;2023-05-15T12:49:21;2.13;;;0.50;;
64361;SDS011;50685;53.346;-6.296;2023-05-15T12:51:52;3.00;;;0.60;;
64361;SDS011;50685;53.346;-6.296;2023-05-15T12:54:18;4.30;;;0.95;;
64361;SDS011;50685;53.346;-6.296;2023-05-15T12:56:45;4.43;;;0.50;;
64361;SDS011;50685;53.346;-6.296;2023-05-15T12:59:12;1.48;;;0.60;;
64361;SDS011;50685;53.346;-6.296;2023-05-15T13:01:40;2.00;;;0.63;;
64361;SDS011;50685;53.346;-6.296;2023-05-15T13:04:09;3.08;;;0.80;;
64361;SDS011;50685;53.346;-6.296;2023-05-15T13:06:36;0.50;;;0.47;;
64361;SDS011;50685;53.346;-6.296;2023-05-15T13:09:03;3.83;;;0.75;;
64361;SDS011;50685;53.346;-6.296;2023-05-15T13:11:29;1.60;;;0.50;;
64361;SDS011;50685;53.346;-6.296;2023-05-15T13:13:55;1.85;;;0.40;;
64361;SDS011;50685;53.346;-6.296;2023-05-15T13:16:24;3.28;;;0.60;;
64361;SDS011;50685;53.346;-6.296;2023-05-15T13:18:53;0.60;;;0.40;;
64361;SDS011;50685;53.346;-6.296;2023-05-15T13:21:21;0.80;;;0.40;;
64361;SDS011;50685;53.346;-6.296;2023-05-15T13:23:46;1.33;;;0.45;;
64361;SDS011;50685;53.346;-6.296;2023-05-15T13:26:12;1.42;;;0.60;;
64361;SDS011;50685;53.346;-6.296;2023-05-15T13:28:37;2.58;;;0.65;;
64361;SDS011;50685;53.346;-6.296;2023-05-15T13:31:03;0.93;;;0.50;;
64361;SDS011;50685;53.346;-6.296;2023-05-15T13:33:29;2.05;;;0.70;;
64361;SDS011;50685;53.346;-6.296;2023-05-15T13:35:56;2.40;;;0.60;;
64361;SDS011;50685;53.346;-6.296;2023-05-15T13:38:22;1.00;;;0.60;;
64361;SDS011;50685;53.346;-6.296;2023-05-15T13:40:47;1.90;;;0.73;;
64361;SDS011;50685;53.346;-6.296;2023-05-15T13:43:13;1.50;;;0.50;;
64361;SDS011;50685;53.346;-6.296;2023-05-15T13:45:39;3.45;;;0.60;;
64361;SDS011;50685;53.346;-6.296;2023-05-15T13:48:05;4.20;;;0.70;;
64361;SDS011;50685;53.346;-6.296;2023-05-15T13:50:30;1.70;;;0.57;;
64361;SDS011;50685;53.346;-6.296;2023-05-15T13:52:56;3.78;;;0.80;;
64361;SDS011;50685;53.346;-6.296;2023-05-15T13:55:21;2.33;;;0.63;;
64361;SDS011;50685;53.346;-6.296;2023-05-15T13:57:47;7.00;;;1.08;;
64361;SDS011;50685;53.346;-6.296;2023-05-15T14:00:12;3.28;;;0.70;;
64361;SDS011;50685;53.346;-6.296;2023-05-15T14:02:39;5.07;;;0.93;;
64361;SDS011;50685;53.346;-6.296;2023-05-15T14:05:07;2.00;;;0.80;;
64361;SDS011;50685;53.346;-6.296;2023-05-15T14:07:34;6.03;;;0.85;;
64361;SDS011;50685;53.346;-6.296;2023-05-15T14:09:59;1.85;;;0.80;;
64361;SDS011;50685;53.346;-6.296;2023-05-15T14:12:25;8.80;;;1.20;;
64361;SDS011;50685;53.346;-6.296;2023-05-15T14:14:50;7.43;;;0.90;;
64361;SDS011;50685;53.346;-6.296;2023-05-15T14:17:16;4.03;;;0.90;;
64361;SDS011;50685;53.346;-6.296;2023-05-15T14:19:42;6.55;;;1.00;;
64361;SDS011;50685;53.346;-6.296;2023-05-15T14:22:08;3.15;;;0.80;;
64361;SDS011;50685;53.346;-6.296;2023-05-15T14:24:33;4.97;;;0.73;;
64361;SDS011;50685;53.346;-6.296;2023-05-15T14:26:59;6.90;;;0.90;;
64361;SDS011;50685;53.346;-6.296;2023-05-15T14:29:25;4.45;;;0.70;;
64361;SDS011;50685;53.346;-6.296;2023-05-15T14:31:51;3.40;;;0.80;;
64361;SDS011;50685;53.346;-6.296;2023-05-15T14:34:17;3.17;;;0.73;;
64361;SDS011;50685;53.346;-6.296;2023-05-15T14:36:43;3.10;;;0.77;;
64361;SDS011;50685;53.346;-6.296;2023-05-15T14:39:10;6.13;;;1.42;;
64361;SDS011;50685;53.346;-6.296;2023-05-15T14:41:38;3.83;;;0.70;;
64361;SDS011;50685;53.346;-6.296;2023-05-15T14:44:03;5.32;;;1.02;;
64361;SDS011;50685;53.346;-6.296;2023-05-15T14:46:32;5.50;;;0.82;;
64361;SDS011;50685;53.346;-6.296;2023-05-15T14:48:57;4.28;;;1.17;;
64361;SDS011;50685;53.346;-6.296;2023-05-15T14:51:23;3.97;;;0.98;;
64361;SDS011;50685;53.346;-6.296;2023-05-15T14:53:48;3.75;;;1.00;;
64361;SDS011;50685;53.346;-6.296;2023-05-15T14:56:14;4.70;;;0.77;;
64361;SDS011;50685;53.346;-6.296;2023-05-15T14:58:39;8.48;;;0.82;;
64361;SDS011;50685;53.346;-6.296;2023-05-15T15:01:08;5.38;;;1.10;;
64361;SDS011;50685;53.346;-6.296;2023-05-15T15:03:49;5.93;;;1.00;;
64361;SDS011;50685;53.346;-6.296;2023-05-15T15:06:31;5.53;;;1.00;;
64361;SDS011;50685;53.346;-6.296;2023-05-15T15:12:27;3.28;;;0.90;;
64361;SDS011;50685;53.346;-6.296;2023-05-15T15:22:17;4.55;;;1.00;;
64361;SDS011;50685;53.346;-6.296;2023-05-15T15:24:59;1.58;;;0.85;;
64361;SDS011;50685;53.346;-6.296;2023-05-15T15:27:58;4.93;;;0.93;;
64361;SDS011;50685;53.346;-6.296;2023-05-15T15:34:35;0.93;;;0.50;;
64361;SDS011;50685;53.346;-6.296;2023-05-15T15:37:31;2.40;;;0.63;;
64361;SDS011;50685;53.346;-6.296;2023-05-15T15:40:12;3.25;;;0.50;;
64361;SDS011;50685;53.346;-6.296;2023-05-15T15:42:43;1.38;;;0.60;;
64361;SDS011;50685;53.346;-6.296;2023-05-15T15:45:25;3.45;;;0.60;;
64361;SDS011;50685;53.346;-6.296;2023-05-15T15:47:57;0.73;;;0.60;;
64361;SDS011;50685;53.346;-6.296;2023-05-15T15:50:34;4.00;;;0.70;;
64361;SDS011;50685;53.346;-6.296;2023-05-15T15:53:34;6.55;;;0.60;;
64361;SDS011;50685;53.346;-6.296;2023-05-15T15:56:03;4.75;;;0.77;;
64361;SDS011;50685;53.346;-6.296;2023-05-15T16:02:20;2.28;;;0.52;;
64361;SDS011;50685;53.346;-6.296;2023-05-15T16:04:48;3.90;;;0.80;;
64361;SDS011;50685;53.346;-6.296;2023-05-15T16:07:19;0.95;;;0.50;;
64361;SDS011;50685;53.346;-6.296;2023-05-15T16:10:03;4.82;;;0.65;;
64361;SDS011;50685;53.346;-6.296;2023-05-15T16:12:39;3.38;;;0.80;;
64361;SDS011;50685;53.346;-6.296;2023-05-15T16:17:40;5.82;;;0.90;;
64361;SDS011;50685;53.346;-6.296;2023-05-15T16:20:06;2.17;;;0.65;;
64361;SDS011;50685;53.346;-6.296;2023-05-15T16:22:32;2.17;;;0.70;;
64361;SDS011;50685;53.346;-6.296;2023-05-15T19:59:42;4.03;;;1.27;;
64361;SDS011;50685;53.346;-6.296;2023-05-15T20:25:31;4.55;;;1.50;;
64361;SDS011;50685;53.346;-6.296;2023-05-15T21:18:39;8.73;;;1.17;;
64361;SDS011;50685;53.346;-6.296;2023-05-15T21:34:21;3.30;;;1.10;;
64361;SDS011;50685;53.346;-6.296;2023-05-15T21:49:47;4.10;;;1.70;;
64361;SDS011;50685;53.346;-6.296;2023-05-15T21:54:48;4.60;;;1.63;;
64361;SDS011;50685;53.346;-6.296;2023-05-15T23:00:12;4.63;;;1.25;;
